Terminal Aerodrome Forecast
Issued by NWS Newport/Morehead City, NC

Home | Current Version | Previous Version | Text Only | Print | Product List | Glossary On
Versions: 1 2 3 4 5 6 7 8 9 10 11 12
890
FTUS42 KMHX 201140
TAFEWN
TAF
KEWN 201140Z 2012/2112 01005KT P6SM FEW050
      TEMPO 2012/2013 3SM BR SCT002
     FM201800 03005KT P6SM VCTS SCT050CB
     FM202300 VRB04KT P6SM FEW050 SCT250
     FM210900 VRB03KT 3SM BR SKC=

USA.gov is the U.S. government's official web portal to all federal, state and local government web resources and services.